sensor_id;sensor_type;location;lat;lon;timestamp;P1;durP1;ratioP1;P2;durP2;ratioP2
64907;SDS011;69061;52.236;5.188;2023-04-06T00:00:19;26.08;;;15.52;;
64907;SDS011;69061;52.236;5.188;2023-04-06T00:02:47;28.02;;;15.73;;
64907;SDS011;69061;52.236;5.188;2023-04-06T00:05:14;24.15;;;15.70;;
64907;SDS011;69061;52.236;5.188;2023-04-06T00:07:40;24.23;;;14.88;;
64907;SDS011;69061;52.236;5.188;2023-04-06T00:10:07;26.08;;;15.43;;
64907;SDS011;69061;52.236;5.188;2023-04-06T00:12:35;24.88;;;15.75;;
64907;SDS011;69061;52.236;5.188;2023-04-06T00:15:01;27.77;;;15.40;;
64907;SDS011;69061;52.236;5.188;2023-04-06T00:17:32;22.77;;;14.18;;
64907;SDS011;69061;52.236;5.188;2023-04-06T00:19:58;24.58;;;14.25;;
64907;SDS011;69061;52.236;5.188;2023-04-06T00:22:25;17.60;;;11.90;;
64907;SDS011;69061;52.236;5.188;2023-04-06T00:24:51;21.50;;;13.32;;
64907;SDS011;69061;52.236;5.188;2023-04-06T00:27:18;22.08;;;12.77;;
64907;SDS011;69061;52.236;5.188;2023-04-06T00:29:45;24.00;;;13.73;;
64907;SDS011;69061;52.236;5.188;2023-04-06T00:32:11;26.52;;;14.15;;
64907;SDS011;69061;52.236;5.188;2023-04-06T00:34:39;20.10;;;12.60;;
64907;SDS011;69061;52.236;5.188;2023-04-06T00:37:06;20.00;;;13.23;;
64907;SDS011;69061;52.236;5.188;2023-04-06T00:39:32;23.15;;;14.40;;
64907;SDS011;69061;52.236;5.188;2023-04-06T00:41:59;24.05;;;14.32;;
64907;SDS011;69061;52.236;5.188;2023-04-06T00:44:25;25.48;;;14.05;;
64907;SDS011;69061;52.236;5.188;2023-04-06T00:46:53;19.83;;;12.60;;
64907;SDS011;69061;52.236;5.188;2023-04-06T00:49:19;22.60;;;13.05;;
64907;SDS011;69061;52.236;5.188;2023-04-06T00:51:47;27.33;;;13.18;;
64907;SDS011;69061;52.236;5.188;2023-04-06T00:54:14;23.25;;;13.50;;
64907;SDS011;69061;52.236;5.188;2023-04-06T00:56:41;21.08;;;14.15;;
64907;SDS011;69061;52.236;5.188;2023-04-06T00:59:09;22.33;;;13.70;;
64907;SDS011;69061;52.236;5.188;2023-04-06T01:01:36;22.92;;;14.18;;
64907;SDS011;69061;52.236;5.188;2023-04-06T01:04:02;24.10;;;14.35;;
64907;SDS011;69061;52.236;5.188;2023-04-06T01:06:29;22.42;;;14.38;;
64907;SDS011;69061;52.236;5.188;2023-04-06T01:08:57;25.50;;;14.75;;
64907;SDS011;69061;52.236;5.188;2023-04-06T01:11:24;21.80;;;13.90;;
64907;SDS011;69061;52.236;5.188;2023-04-06T01:13:51;21.33;;;12.73;;
64907;SDS011;69061;52.236;5.188;2023-04-06T01:16:18;24.08;;;14.48;;
64907;SDS011;69061;52.236;5.188;2023-04-06T01:18:44;28.23;;;14.13;;
64907;SDS011;69061;52.236;5.188;2023-04-06T01:21:11;23.45;;;13.45;;
64907;SDS011;69061;52.236;5.188;2023-04-06T01:23:43;23.55;;;13.73;;
64907;SDS011;69061;52.236;5.188;2023-04-06T01:26:10;22.25;;;11.35;;
64907;SDS011;69061;52.236;5.188;2023-04-06T01:28:37;16.70;;;11.43;;
64907;SDS011;69061;52.236;5.188;2023-04-06T01:31:04;22.00;;;11.88;;
64907;SDS011;69061;52.236;5.188;2023-04-06T01:33:31;24.73;;;13.82;;
64907;SDS011;69061;52.236;5.188;2023-04-06T01:35:58;21.88;;;12.02;;
64907;SDS011;69061;52.236;5.188;2023-04-06T01:38:24;22.00;;;12.27;;
64907;SDS011;69061;52.236;5.188;2023-04-06T01:40:53;20.98;;;11.02;;
64907;SDS011;69061;52.236;5.188;2023-04-06T01:43:20;21.98;;;11.40;;
64907;SDS011;69061;52.236;5.188;2023-04-06T01:45:47;18.60;;;10.63;;
64907;SDS011;69061;52.236;5.188;2023-04-06T01:48:13;18.52;;;10.57;;
64907;SDS011;69061;52.236;5.188;2023-04-06T01:50:40;21.20;;;10.73;;
64907;SDS011;69061;52.236;5.188;2023-04-06T01:53:07;15.10;;;10.13;;
64907;SDS011;69061;52.236;5.188;2023-04-06T01:55:33;20.35;;;11.77;;
64907;SDS011;69061;52.236;5.188;2023-04-06T01:58:01;26.75;;;12.98;;
64907;SDS011;69061;52.236;5.188;2023-04-06T02:00:28;17.80;;;10.85;;
64907;SDS011;69061;52.236;5.188;2023-04-06T02:02:55;17.92;;;11.40;;
64907;SDS011;69061;52.236;5.188;2023-04-06T02:05:22;20.80;;;12.45;;
64907;SDS011;69061;52.236;5.188;2023-04-06T02:07:48;17.65;;;11.02;;
64907;SDS011;69061;52.236;5.188;2023-04-06T02:10:16;20.10;;;12.50;;
64907;SDS011;69061;52.236;5.188;2023-04-06T02:12:43;21.13;;;11.98;;
64907;SDS011;69061;52.236;5.188;2023-04-06T02:15:11;19.40;;;12.27;;
64907;SDS011;69061;52.236;5.188;2023-04-06T02:17:38;22.45;;;12.48;;
64907;SDS011;69061;52.236;5.188;2023-04-06T02:20:05;16.38;;;10.25;;
64907;SDS011;69061;52.236;5.188;2023-04-06T02:22:33;19.02;;;11.18;;
64907;SDS011;69061;52.236;5.188;2023-04-06T02:24:59;18.13;;;11.38;;
64907;SDS011;69061;52.236;5.188;2023-04-06T02:27:26;19.60;;;11.23;;
64907;SDS011;69061;52.236;5.188;2023-04-06T02:29:53;15.35;;;10.05;;
64907;SDS011;69061;52.236;5.188;2023-04-06T02:32:21;15.85;;;10.02;;
64907;SDS011;69061;52.236;5.188;2023-04-06T02:34:47;14.10;;;9.52;;
64907;SDS011;69061;52.236;5.188;2023-04-06T02:37:14;16.77;;;10.23;;
64907;SDS011;69061;52.236;5.188;2023-04-06T02:39:41;21.75;;;9.98;;
64907;SDS011;69061;52.236;5.188;2023-04-06T02:42:07;16.45;;;9.98;;
64907;SDS011;69061;52.236;5.188;2023-04-06T02:44:34;15.23;;;9.98;;
64907;SDS011;69061;52.236;5.188;2023-04-06T02:47:01;16.23;;;9.50;;
64907;SDS011;69061;52.236;5.188;2023-04-06T02:49:29;14.35;;;8.90;;
64907;SDS011;69061;52.236;5.188;2023-04-06T02:51:56;16.92;;;10.82;;
64907;SDS011;69061;52.236;5.188;2023-04-06T02:54:22;21.65;;;11.40;;
64907;SDS011;69061;52.236;5.188;2023-04-06T02:56:49;17.17;;;10.13;;
64907;SDS011;69061;52.236;5.188;2023-04-06T02:59:16;17.45;;;10.40;;
64907;SDS011;69061;52.236;5.188;2023-04-06T03:01:42;16.10;;;9.80;;
64907;SDS011;69061;52.236;5.188;2023-04-06T03:04:09;15.13;;;9.13;;
64907;SDS011;69061;52.236;5.188;2023-04-06T03:06:37;15.60;;;9.73;;
64907;SDS011;69061;52.236;5.188;2023-04-06T03:09:03;15.13;;;9.15;;
64907;SDS011;69061;52.236;5.188;2023-04-06T03:11:30;15.90;;;10.40;;
64907;SDS011;69061;52.236;5.188;2023-04-06T03:13:57;18.35;;;10.55;;
64907;SDS011;69061;52.236;5.188;2023-04-06T03:16:24;17.77;;;10.25;;
64907;SDS011;69061;52.236;5.188;2023-04-06T03:18:51;15.02;;;9.82;;
64907;SDS011;69061;52.236;5.188;2023-04-06T03:21:17;19.15;;;11.68;;
64907;SDS011;69061;52.236;5.188;2023-04-06T03:23:45;18.67;;;10.70;;
64907;SDS011;69061;52.236;5.188;2023-04-06T03:26:15;20.13;;;10.45;;
64907;SDS011;69061;52.236;5.188;2023-04-06T03:28:42;18.50;;;11.13;;
64907;SDS011;69061;52.236;5.188;2023-04-06T03:31:09;17.58;;;10.80;;
64907;SDS011;69061;52.236;5.188;2023-04-06T03:33:35;18.27;;;11.85;;
64907;SDS011;69061;52.236;5.188;2023-04-06T03:36:02;19.98;;;12.50;;
64907;SDS011;69061;52.236;5.188;2023-04-06T03:38:29;24.67;;;13.05;;
64907;SDS011;69061;52.236;5.188;2023-04-06T03:40:57;20.40;;;12.45;;
64907;SDS011;69061;52.236;5.188;2023-04-06T03:43:24;22.65;;;12.55;;
64907;SDS011;69061;52.236;5.188;2023-04-06T03:45:53;18.52;;;11.77;;
64907;SDS011;69061;52.236;5.188;2023-04-06T03:48:20;20.80;;;13.13;;
64907;SDS011;69061;52.236;5.188;2023-04-06T03:50:46;22.33;;;12.98;;
64907;SDS011;69061;52.236;5.188;2023-04-06T03:53:13;22.63;;;13.02;;
64907;SDS011;69061;52.236;5.188;2023-04-06T03:55:40;21.33;;;12.05;;
64907;SDS011;69061;52.236;5.188;2023-04-06T03:58:08;23.05;;;13.50;;
64907;SDS011;69061;52.236;5.188;2023-04-06T04:00:34;22.30;;;12.52;;
64907;SDS011;69061;52.236;5.188;2023-04-06T04:03:01;20.92;;;13.27;;
64907;SDS011;69061;52.236;5.188;2023-04-06T04:05:27;22.25;;;12.77;;
64907;SDS011;69061;52.236;5.188;2023-04-06T04:07:54;22.65;;;13.30;;
64907;SDS011;69061;52.236;5.188;2023-04-06T04:10:21;24.50;;;13.35;;
64907;SDS011;69061;52.236;5.188;2023-04-06T04:12:47;22.58;;;14.38;;
64907;SDS011;69061;52.236;5.188;2023-04-06T04:15:18;26.15;;;14.57;;
64907;SDS011;69061;52.236;5.188;2023-04-06T04:17:44;24.45;;;14.32;;
64907;SDS011;69061;52.236;5.188;2023-04-06T04:20:14;29.75;;;14.23;;
64907;SDS011;69061;52.236;5.188;2023-04-06T04:22:41;26.30;;;15.00;;
64907;SDS011;69061;52.236;5.188;2023-04-06T04:25:08;26.30;;;13.60;;
64907;SDS011;69061;52.236;5.188;2023-04-06T04:27:35;24.15;;;13.50;;
64907;SDS011;69061;52.236;5.188;2023-04-06T04:30:02;25.90;;;13.73;;
64907;SDS011;69061;52.236;5.188;2023-04-06T04:32:30;25.05;;;13.48;;
64907;SDS011;69061;52.236;5.188;2023-04-06T04:34:56;31.25;;;16.30;;
64907;SDS011;69061;52.236;5.188;2023-04-06T04:37:23;24.95;;;14.80;;
64907;SDS011;69061;52.236;5.188;2023-04-06T04:39:50;25.17;;;15.57;;
64907;SDS011;69061;52.236;5.188;2023-04-06T04:42:16;29.02;;;15.60;;
64907;SDS011;69061;52.236;5.188;2023-04-06T04:44:43;25.15;;;14.75;;
64907;SDS011;69061;52.236;5.188;2023-04-06T04:47:09;27.75;;;16.40;;
64907;SDS011;69061;52.236;5.188;2023-04-06T04:49:37;24.13;;;13.98;;
64907;SDS011;69061;52.236;5.188;2023-04-06T04:52:04;21.17;;;12.75;;
64907;SDS011;69061;52.236;5.188;2023-04-06T04:54:31;28.00;;;15.52;;
64907;SDS011;69061;52.236;5.188;2023-04-06T04:56:57;28.27;;;14.18;;
64907;SDS011;69061;52.236;5.188;2023-04-06T04:59:24;27.27;;;15.80;;
64907;SDS011;69061;52.236;5.188;2023-04-06T05:01:51;30.80;;;17.05;;
64907;SDS011;69061;52.236;5.188;2023-04-06T05:04:18;27.02;;;14.77;;
64907;SDS011;69061;52.236;5.188;2023-04-06T05:06:46;26.48;;;16.50;;
64907;SDS011;69061;52.236;5.188;2023-04-06T05:09:12;26.60;;;14.30;;
64907;SDS011;69061;52.236;5.188;2023-04-06T05:11:39;25.42;;;14.98;;
64907;SDS011;69061;52.236;5.188;2023-04-06T05:14:06;28.60;;;15.43;;
64907;SDS011;69061;52.236;5.188;2023-04-06T05:16:33;27.58;;;15.10;;
64907;SDS011;69061;52.236;5.188;2023-04-06T05:19:00;29.23;;;17.08;;
64907;SDS011;69061;52.236;5.188;2023-04-06T05:21:27;26.40;;;14.95;;
64907;SDS011;69061;52.236;5.188;2023-04-06T05:23:54;27.20;;;14.82;;
64907;SDS011;69061;52.236;5.188;2023-04-06T05:26:21;27.13;;;14.90;;
64907;SDS011;69061;52.236;5.188;2023-04-06T05:28:48;25.42;;;14.50;;
64907;SDS011;69061;52.236;5.188;2023-04-06T05:31:14;24.20;;;14.15;;
64907;SDS011;69061;52.236;5.188;2023-04-06T05:33:41;28.88;;;16.15;;
64907;SDS011;69061;52.236;5.188;2023-04-06T05:36:08;25.13;;;15.23;;
64907;SDS011;69061;52.236;5.188;2023-04-06T05:38:34;28.45;;;14.63;;
64907;SDS011;69061;52.236;5.188;2023-04-06T05:41:02;24.38;;;14.30;;
64907;SDS011;69061;52.236;5.188;2023-04-06T05:43:29;29.30;;;15.68;;
64907;SDS011;69061;52.236;5.188;2023-04-06T05:45:56;26.85;;;15.23;;
64907;SDS011;69061;52.236;5.188;2023-04-06T05:48:22;28.65;;;15.48;;
64907;SDS011;69061;52.236;5.188;2023-04-06T05:50:51;25.95;;;14.43;;
64907;SDS011;69061;52.236;5.188;2023-04-06T05:53:18;28.42;;;15.60;;
64907;SDS011;69061;52.236;5.188;2023-04-06T05:55:46;28.75;;;15.40;;
64907;SDS011;69061;52.236;5.188;2023-04-06T05:58:14;25.67;;;15.20;;
64907;SDS011;69061;52.236;5.188;2023-04-06T06:00:42;28.70;;;16.83;;
64907;SDS011;69061;52.236;5.188;2023-04-06T06:03:10;24.05;;;14.43;;
64907;SDS011;69061;52.236;5.188;2023-04-06T06:05:38;27.98;;;15.20;;
64907;SDS011;69061;52.236;5.188;2023-04-06T06:08:04;27.08;;;15.57;;
64907;SDS011;69061;52.236;5.188;2023-04-06T06:10:31;24.67;;;14.07;;
64907;SDS011;69061;52.236;5.188;2023-04-06T06:12:57;29.02;;;16.63;;
64907;SDS011;69061;52.236;5.188;2023-04-06T06:15:25;29.25;;;15.75;;
64907;SDS011;69061;52.236;5.188;2023-04-06T06:17:52;30.65;;;16.65;;
64907;SDS011;69061;52.236;5.188;2023-04-06T06:20:19;28.52;;;16.48;;
64907;SDS011;69061;52.236;5.188;2023-04-06T06:22:45;30.38;;;16.50;;
64907;SDS011;69061;52.236;5.188;2023-04-06T06:25:12;26.08;;;15.48;;
64907;SDS011;69061;52.236;5.188;2023-04-06T06:27:38;30.70;;;16.80;;
64907;SDS011;69061;52.236;5.188;2023-04-06T06:30:05;30.88;;;16.48;;
64907;SDS011;69061;52.236;5.188;2023-04-06T06:32:34;35.72;;;18.55;;
64907;SDS011;69061;52.236;5.188;2023-04-06T06:35:01;26.88;;;15.07;;
64907;SDS011;69061;52.236;5.188;2023-04-06T06:37:27;31.77;;;16.85;;
64907;SDS011;69061;52.236;5.188;2023-04-06T06:39:54;31.45;;;17.27;;
64907;SDS011;69061;52.236;5.188;2023-04-06T06:42:21;28.02;;;16.90;;
64907;SDS011;69061;52.236;5.188;2023-04-06T06:44:47;30.45;;;18.45;;
64907;SDS011;69061;52.236;5.188;2023-04-06T06:47:14;27.42;;;16.17;;
64907;SDS011;69061;52.236;5.188;2023-04-06T06:49:42;26.38;;;15.40;;
64907;SDS011;69061;52.236;5.188;2023-04-06T06:52:08;33.42;;;17.20;;
64907;SDS011;69061;52.236;5.188;2023-04-06T06:54:35;30.80;;;17.20;;
64907;SDS011;69061;52.236;5.188;2023-04-06T06:57:01;29.58;;;17.20;;
64907;SDS011;69061;52.236;5.188;2023-04-06T06:59:28;30.15;;;17.75;;
64907;SDS011;69061;52.236;5.188;2023-04-06T07:01:55;27.52;;;17.25;;
64907;SDS011;69061;52.236;5.188;2023-04-06T07:04:21;28.23;;;16.10;;
64907;SDS011;69061;52.236;5.188;2023-04-06T07:06:49;33.67;;;18.08;;
64907;SDS011;69061;52.236;5.188;2023-04-06T07:09:16;29.15;;;18.30;;
64907;SDS011;69061;52.236;5.188;2023-04-06T07:11:42;35.53;;;18.23;;
64907;SDS011;69061;52.236;5.188;2023-04-06T07:14:09;34.25;;;18.48;;
64907;SDS011;69061;52.236;5.188;2023-04-06T07:16:36;32.55;;;19.52;;
64907;SDS011;69061;52.236;5.188;2023-04-06T07:19:03;38.25;;;19.92;;
64907;SDS011;69061;52.236;5.188;2023-04-06T07:21:29;38.10;;;17.85;;
64907;SDS011;69061;52.236;5.188;2023-04-06T07:23:57;28.65;;;15.70;;
64907;SDS011;69061;52.236;5.188;2023-04-06T07:26:24;29.90;;;17.15;;
64907;SDS011;69061;52.236;5.188;2023-04-06T07:28:50;29.65;;;17.08;;
64907;SDS011;69061;52.236;5.188;2023-04-06T07:31:17;31.92;;;19.25;;
64907;SDS011;69061;52.236;5.188;2023-04-06T07:33:43;30.70;;;19.08;;
64907;SDS011;69061;52.236;5.188;2023-04-06T07:36:10;31.15;;;18.83;;
64907;SDS011;69061;52.236;5.188;2023-04-06T07:38:37;31.52;;;18.40;;
64907;SDS011;69061;52.236;5.188;2023-04-06T07:41:05;38.22;;;20.33;;
64907;SDS011;69061;52.236;5.188;2023-04-06T07:43:31;30.30;;;18.58;;
64907;SDS011;69061;52.236;5.188;2023-04-06T07:45:58;34.90;;;20.48;;
64907;SDS011;69061;52.236;5.188;2023-04-06T07:48:25;36.88;;;21.00;;
64907;SDS011;69061;52.236;5.188;2023-04-06T07:50:52;31.85;;;20.48;;
64907;SDS011;69061;52.236;5.188;2023-04-06T07:53:26;41.05;;;20.40;;
64907;SDS011;69061;52.236;5.188;2023-04-06T07:55:53;35.22;;;18.17;;
64907;SDS011;69061;52.236;5.188;2023-04-06T07:58:22;37.70;;;20.67;;
64907;SDS011;69061;52.236;5.188;2023-04-06T08:00:48;39.95;;;20.98;;
64907;SDS011;69061;52.236;5.188;2023-04-06T08:03:15;40.28;;;21.17;;
64907;SDS011;69061;52.236;5.188;2023-04-06T08:05:42;35.17;;;19.48;;
64907;SDS011;69061;52.236;5.188;2023-04-06T08:08:09;41.47;;;22.02;;
64907;SDS011;69061;52.236;5.188;2023-04-06T08:10:35;30.17;;;18.40;;
64907;SDS011;69061;52.236;5.188;2023-04-06T08:13:02;36.15;;;21.42;;
64907;SDS011;69061;52.236;5.188;2023-04-06T08:15:29;39.28;;;20.83;;
64907;SDS011;69061;52.236;5.188;2023-04-06T08:17:56;28.65;;;17.80;;
64907;SDS011;69061;52.236;5.188;2023-04-06T08:20:23;41.80;;;21.98;;
64907;SDS011;69061;52.236;5.188;2023-04-06T08:22:49;40.25;;;21.55;;
64907;SDS011;69061;52.236;5.188;2023-04-06T08:25:16;37.03;;;20.80;;
64907;SDS011;69061;52.236;5.188;2023-04-06T08:27:42;36.58;;;21.40;;
64907;SDS011;69061;52.236;5.188;2023-04-06T08:30:09;38.50;;;22.45;;
64907;SDS011;69061;52.236;5.188;2023-04-06T08:32:37;54.53;;;23.05;;
64907;SDS011;69061;52.236;5.188;2023-04-06T08:35:06;43.40;;;22.77;;
64907;SDS011;69061;52.236;5.188;2023-04-06T08:37:33;40.88;;;23.08;;
64907;SDS011;69061;52.236;5.188;2023-04-06T08:40:00;36.15;;;20.17;;
64907;SDS011;69061;52.236;5.188;2023-04-06T08:42:28;46.30;;;23.17;;
64907;SDS011;69061;52.236;5.188;2023-04-06T08:44:58;41.83;;;20.88;;
64907;SDS011;69061;52.236;5.188;2023-04-06T08:47:26;37.58;;;21.00;;
64907;SDS011;69061;52.236;5.188;2023-04-06T08:49:55;40.40;;;22.25;;
64907;SDS011;69061;52.236;5.188;2023-04-06T08:52:22;43.05;;;23.05;;
64907;SDS011;69061;52.236;5.188;2023-04-06T08:54:51;38.03;;;21.73;;
64907;SDS011;69061;52.236;5.188;2023-04-06T08:57:18;35.95;;;22.08;;
64907;SDS011;69061;52.236;5.188;2023-04-06T08:59:46;37.30;;;21.17;;
64907;SDS011;69061;52.236;5.188;2023-04-06T09:02:15;38.40;;;22.95;;
64907;SDS011;69061;52.236;5.188;2023-04-06T09:04:44;36.85;;;21.98;;
64907;SDS011;69061;52.236;5.188;2023-04-06T09:07:13;40.88;;;22.10;;
64907;SDS011;69061;52.236;5.188;2023-04-06T09:09:41;35.38;;;20.40;;
64907;SDS011;69061;52.236;5.188;2023-04-06T09:12:21;34.67;;;20.40;;
64907;SDS011;69061;52.236;5.188;2023-04-06T09:14:48;35.90;;;21.00;;
64907;SDS011;69061;52.236;5.188;2023-04-06T09:17:19;41.20;;;22.83;;
64907;SDS011;69061;52.236;5.188;2023-04-06T09:19:47;39.80;;;22.40;;
64907;SDS011;69061;52.236;5.188;2023-04-06T09:22:15;37.63;;;21.13;;
64907;SDS011;69061;52.236;5.188;2023-04-06T09:24:43;39.88;;;20.52;;
64907;SDS011;69061;52.236;5.188;2023-04-06T09:27:10;34.13;;;21.40;;
64907;SDS011;69061;52.236;5.188;2023-04-06T09:29:37;35.20;;;21.60;;
64907;SDS011;69061;52.236;5.188;2023-04-06T09:32:03;36.10;;;22.30;;
64907;SDS011;69061;52.236;5.188;2023-04-06T09:34:31;33.78;;;20.65;;
64907;SDS011;69061;52.236;5.188;2023-04-06T09:36:58;33.35;;;21.38;;
64907;SDS011;69061;52.236;5.188;2023-04-06T09:39:25;38.55;;;24.17;;
64907;SDS011;69061;52.236;5.188;2023-04-06T09:41:53;36.78;;;23.10;;
64907;SDS011;69061;52.236;5.188;2023-04-06T09:44:21;44.38;;;24.40;;
64907;SDS011;69061;52.236;5.188;2023-04-06T09:46:49;46.80;;;23.55;;
64907;SDS011;69061;52.236;5.188;2023-04-06T09:49:15;42.67;;;24.20;;
64907;SDS011;69061;52.236;5.188;2023-04-06T09:51:44;40.53;;;24.65;;
64907;SDS011;69061;52.236;5.188;2023-04-06T09:54:15;48.35;;;24.60;;
64907;SDS011;69061;52.236;5.188;2023-04-06T09:56:50;45.13;;;26.17;;
64907;SDS011;69061;52.236;5.188;2023-04-06T09:59:25;42.17;;;24.83;;
64907;SDS011;69061;52.236;5.188;2023-04-06T10:01:58;40.08;;;24.10;;
64907;SDS011;69061;52.236;5.188;2023-04-06T10:04:28;39.03;;;20.50;;
64907;SDS011;69061;52.236;5.188;2023-04-06T10:07:06;43.65;;;25.88;;
64907;SDS011;69061;52.236;5.188;2023-04-06T10:09:33;43.72;;;25.30;;
64907;SDS011;69061;52.236;5.188;2023-04-06T10:12:05;47.75;;;24.80;;
64907;SDS011;69061;52.236;5.188;2023-04-06T10:14:32;37.97;;;22.27;;
64907;SDS011;69061;52.236;5.188;2023-04-06T10:17:02;46.67;;;24.40;;
64907;SDS011;69061;52.236;5.188;2023-04-06T10:19:29;40.92;;;22.23;;
64907;SDS011;69061;52.236;5.188;2023-04-06T10:22:15;40.35;;;21.65;;
64907;SDS011;69061;52.236;5.188;2023-04-06T10:24:47;34.90;;;18.90;;
64907;SDS011;69061;52.236;5.188;2023-04-06T10:27:15;42.00;;;22.67;;
64907;SDS011;69061;52.236;5.188;2023-04-06T10:29:42;36.42;;;20.90;;
64907;SDS011;69061;52.236;5.188;2023-04-06T10:32:11;36.95;;;20.75;;
64907;SDS011;69061;52.236;5.188;2023-04-06T10:34:38;35.35;;;20.13;;
64907;SDS011;69061;52.236;5.188;2023-04-06T10:37:12;31.63;;;19.70;;
64907;SDS011;69061;52.236;5.188;2023-04-06T10:39:45;37.35;;;19.40;;
64907;SDS011;69061;52.236;5.188;2023-04-06T10:42:14;33.00;;;17.88;;
64907;SDS011;69061;52.236;5.188;2023-04-06T10:44:43;33.10;;;19.02;;
64907;SDS011;69061;52.236;5.188;2023-04-06T10:47:15;24.90;;;15.55;;
64907;SDS011;69061;52.236;5.188;2023-04-06T10:49:43;30.38;;;16.52;;
64907;SDS011;69061;52.236;5.188;2023-04-06T10:52:10;27.35;;;14.18;;
64907;SDS011;69061;52.236;5.188;2023-04-06T10:54:40;26.00;;;14.75;;
64907;SDS011;69061;52.236;5.188;2023-04-06T10:57:08;17.65;;;11.45;;
64907;SDS011;69061;52.236;5.188;2023-04-06T10:59:36;15.52;;;9.98;;
64907;SDS011;69061;52.236;5.188;2023-04-06T11:02:02;15.60;;;9.30;;
64907;SDS011;69061;52.236;5.188;2023-04-06T11:04:29;14.50;;;9.25;;
64907;SDS011;69061;52.236;5.188;2023-04-06T11:06:56;14.57;;;9.25;;
64907;SDS011;69061;52.236;5.188;2023-04-06T11:09:23;16.80;;;9.57;;
64907;SDS011;69061;52.236;5.188;2023-04-06T11:11:53;13.52;;;9.32;;
64907;SDS011;69061;52.236;5.188;2023-04-06T11:14:20;16.30;;;9.88;;
64907;SDS011;69061;52.236;5.188;2023-04-06T11:16:48;13.80;;;8.80;;
64907;SDS011;69061;52.236;5.188;2023-04-06T11:19:15;15.48;;;8.68;;
64907;SDS011;69061;52.236;5.188;2023-04-06T11:21:43;12.48;;;8.57;;
64907;SDS011;69061;52.236;5.188;2023-04-06T11:24:12;11.20;;;7.80;;
64907;SDS011;69061;52.236;5.188;2023-04-06T11:26:40;13.50;;;7.95;;
64907;SDS011;69061;52.236;5.188;2023-04-06T11:29:08;16.10;;;9.38;;
64907;SDS011;69061;52.236;5.188;2023-04-06T11:31:41;13.73;;;8.48;;
64907;SDS011;69061;52.236;5.188;2023-04-06T11:34:13;18.50;;;9.82;;
64907;SDS011;69061;52.236;5.188;2023-04-06T11:36:42;12.75;;;8.13;;
64907;SDS011;69061;52.236;5.188;2023-04-06T11:39:10;14.50;;;8.20;;
64907;SDS011;69061;52.236;5.188;2023-04-06T11:41:37;14.65;;;8.00;;
64907;SDS011;69061;52.236;5.188;2023-04-06T11:44:03;12.95;;;7.95;;
64907;SDS011;69061;52.236;5.188;2023-04-06T11:46:31;14.70;;;9.02;;
64907;SDS011;69061;52.236;5.188;2023-04-06T11:48:58;13.13;;;7.95;;
64907;SDS011;69061;52.236;5.188;2023-04-06T11:51:27;17.25;;;8.50;;
64907;SDS011;69061;52.236;5.188;2023-04-06T11:53:54;13.85;;;8.35;;
64907;SDS011;69061;52.236;5.188;2023-04-06T11:56:24;12.25;;;8.57;;
64907;SDS011;69061;52.236;5.188;2023-04-06T11:58:51;14.48;;;7.80;;
64907;SDS011;69061;52.236;5.188;2023-04-06T12:01:18;11.02;;;8.20;;
64907;SDS011;69061;52.236;5.188;2023-04-06T12:03:45;11.55;;;8.38;;
64907;SDS011;69061;52.236;5.188;2023-04-06T12:06:11;12.60;;;8.80;;
64907;SDS011;69061;52.236;5.188;2023-04-06T12:08:39;12.52;;;8.48;;
64907;SDS011;69061;52.236;5.188;2023-04-06T12:11:06;12.48;;;7.97;;
64907;SDS011;69061;52.236;5.188;2023-04-06T12:13:32;11.57;;;7.68;;
64907;SDS011;69061;52.236;5.188;2023-04-06T12:15:59;18.15;;;10.13;;
64907;SDS011;69061;52.236;5.188;2023-04-06T12:18:25;15.90;;;9.40;;
64907;SDS011;69061;52.236;5.188;2023-04-06T12:20:52;14.63;;;9.00;;
64907;SDS011;69061;52.236;5.188;2023-04-06T12:23:19;16.65;;;8.48;;
64907;SDS011;69061;52.236;5.188;2023-04-06T12:25:47;13.85;;;9.02;;
64907;SDS011;69061;52.236;5.188;2023-04-06T12:28:13;13.15;;;9.38;;
64907;SDS011;69061;52.236;5.188;2023-04-06T12:30:40;15.35;;;8.80;;
64907;SDS011;69061;52.236;5.188;2023-04-06T12:33:07;18.38;;;10.55;;
64907;SDS011;69061;52.236;5.188;2023-04-06T12:35:33;15.43;;;10.48;;
64907;SDS011;69061;52.236;5.188;2023-04-06T12:38:00;16.95;;;10.23;;
64907;SDS011;69061;52.236;5.188;2023-04-06T12:40:27;17.75;;;10.70;;
64907;SDS011;69061;52.236;5.188;2023-04-06T12:42:54;15.20;;;10.00;;
64907;SDS011;69061;52.236;5.188;2023-04-06T12:45:21;19.42;;;11.43;;
64907;SDS011;69061;52.236;5.188;2023-04-06T12:47:48;13.52;;;10.23;;
64907;SDS011;69061;52.236;5.188;2023-04-06T12:50:15;21.08;;;12.43;;
64907;SDS011;69061;52.236;5.188;2023-04-06T12:52:41;16.60;;;11.60;;
64907;SDS011;69061;52.236;5.188;2023-04-06T12:55:08;17.80;;;11.75;;
64907;SDS011;69061;52.236;5.188;2023-04-06T12:57:35;19.95;;;12.02;;
64907;SDS011;69061;52.236;5.188;2023-04-06T13:00:04;15.95;;;10.57;;
64907;SDS011;69061;52.236;5.188;2023-04-06T13:02:31;19.63;;;12.95;;
64907;SDS011;69061;52.236;5.188;2023-04-06T13:04:58;17.80;;;11.98;;
64907;SDS011;69061;52.236;5.188;2023-04-06T13:07:25;20.15;;;12.63;;
64907;SDS011;69061;52.236;5.188;2023-04-06T13:09:51;22.05;;;12.23;;
64907;SDS011;69061;52.236;5.188;2023-04-06T13:12:18;19.60;;;12.07;;
64907;SDS011;69061;52.236;5.188;2023-04-06T13:14:45;21.00;;;13.73;;
64907;SDS011;69061;52.236;5.188;2023-04-06T13:17:17;18.15;;;12.35;;
64907;SDS011;69061;52.236;5.188;2023-04-06T13:19:43;21.77;;;13.20;;
64907;SDS011;69061;52.236;5.188;2023-04-06T13:22:10;19.95;;;11.88;;
64907;SDS011;69061;52.236;5.188;2023-04-06T13:24:37;22.83;;;13.85;;
64907;SDS011;69061;52.236;5.188;2023-04-06T13:27:03;21.90;;;13.50;;
64907;SDS011;69061;52.236;5.188;2023-04-06T13:29:30;17.75;;;11.82;;
64907;SDS011;69061;52.236;5.188;2023-04-06T13:31:56;20.15;;;13.18;;
64907;SDS011;69061;52.236;5.188;2023-04-06T13:34:25;21.27;;;14.65;;
64907;SDS011;69061;52.236;5.188;2023-04-06T13:36:52;23.17;;;15.30;;
64907;SDS011;69061;52.236;5.188;2023-04-06T13:39:18;20.88;;;14.48;;
64907;SDS011;69061;52.236;5.188;2023-04-06T13:41:45;25.73;;;14.60;;
64907;SDS011;69061;52.236;5.188;2023-04-06T13:44:11;24.83;;;15.45;;
64907;SDS011;69061;52.236;5.188;2023-04-06T13:46:38;24.00;;;15.25;;
64907;SDS011;69061;52.236;5.188;2023-04-06T13:49:05;23.88;;;15.00;;
64907;SDS011;69061;52.236;5.188;2023-04-06T13:51:32;26.33;;;15.02;;
64907;SDS011;69061;52.236;5.188;2023-04-06T13:53:59;21.40;;;14.05;;
64907;SDS011;69061;52.236;5.188;2023-04-06T13:56:26;26.42;;;15.00;;
64907;SDS011;69061;52.236;5.188;2023-04-06T13:58:53;21.58;;;14.65;;
64907;SDS011;69061;52.236;5.188;2023-04-06T14:01:20;25.38;;;14.93;;
64907;SDS011;69061;52.236;5.188;2023-04-06T14:03:47;21.73;;;15.25;;
64907;SDS011;69061;52.236;5.188;2023-04-06T14:06:14;19.95;;;15.05;;
64907;SDS011;69061;52.236;5.188;2023-04-06T14:08:42;23.58;;;16.00;;
64907;SDS011;69061;52.236;5.188;2023-04-06T14:11:10;23.90;;;16.25;;
64907;SDS011;69061;52.236;5.188;2023-04-06T14:13:38;26.45;;;16.65;;
64907;SDS011;69061;52.236;5.188;2023-04-06T14:16:05;23.13;;;15.98;;
64907;SDS011;69061;52.236;5.188;2023-04-06T14:18:32;17.70;;;11.52;;
64907;SDS011;69061;52.236;5.188;2023-04-06T14:20:59;21.73;;;13.77;;
64907;SDS011;69061;52.236;5.188;2023-04-06T14:23:26;19.27;;;13.68;;